首页
METAR-TAF:

METAR-TAF

机场 :

本-古里安国际机场

特拉维夫 / 本·古里安, 以色列

纬度: 32-00N, 经度: 034-54E, 海拔: 40米

当前天气观测

该预报发布于39分钟前的20:50 UTC
风速2节,风向多变
温度 25°C
湿度 44%
气压 1011 hPa
能见度10公里或以上
少量云层高于5000英尺
小雨

METAR: LLBG 222050Z VRB02KT 9999 -RA FEW050 25/12 Q1011 TEMPO TSRA FEW090CB RMK SCT080 BKN130

时间: 00:29 (21:29 UTC)

预报

该预报发布于58分钟前的20:31 UTC
预报有效从22日的 21点(UTC)到 23日的 18点(UTC)
风速6节,风向南转南东
能见度10公里或以上
1500米以下无云,无积雨云
短暂存在
从 22日的 21点(UTC)到 23日的 03点(UTC)
风速3节,风向多变
能见度10公里或以上
少量云层高于10000英尺, 积雨云.
雷暴, 雨
成为
从 23日的 07点(UTC)到 23日的 09点(UTC)
风速8节,风向西转西南
成为
从 23日的 14点(UTC)到 23日的 16点(UTC)
风速4节,风向西北

TAF: LLBG 222031Z 2221/2318 15006KT CAVOK TEMPO 2221/2303 VRB03KT 9999 TSRA FEW100CB BECMG 2307/2309 25008KT BECMG 2314/2316 32004KT TX32/2312Z TN24/2304Z

超过4000个机场的气象观测和天气预报(METAR&TAF报告)。

可查询的气象台以黄色和红色小点在地图上表示。

将鼠标移到小点上方,可查看气象台名称。

然后点击查看天气观测和预报。

如需切换地图:点击带黑十字的绿色按钮放大地图;点击带横线的绿色按钮缩小地图;或者点击绿色箭头查看邻近地区的地图。


METAR-TAF: